createdAt,value
2023-03-31T00:00:37.215Z,8.56
2023-03-31T00:07:14.614Z,8.48
2023-03-31T00:14:07.195Z,8.38
2023-03-31T00:20:56.847Z,8.28
2023-03-31T00:28:06.346Z,8.20
2023-03-31T00:35:05.382Z,8.14
2023-03-31T00:41:49.291Z,8.13
2023-03-31T00:48:20.820Z,8.13
2023-03-31T00:55:25.470Z,8.10
2023-03-31T01:02:20.238Z,8.09
2023-03-31T01:08:44.737Z,8.06
2023-03-31T01:15:14.293Z,8.07
2023-03-31T01:22:11.603Z,8.06
2023-03-31T01:29:05.367Z,8.07
2023-03-31T01:35:29.365Z,8.06
2023-03-31T01:42:10.726Z,8.00
2023-03-31T01:49:01.868Z,7.87
2023-03-31T01:56:01.175Z,7.77
2023-03-31T02:02:54.211Z,7.68
2023-03-31T02:09:42.384Z,7.65
2023-03-31T02:15:57.340Z,7.70
2023-03-31T02:22:05.238Z,7.76
2023-03-31T02:29:08.260Z,7.79
2023-03-31T02:36:13.030Z,7.81
2023-03-31T02:43:04.591Z,7.81
2023-03-31T02:50:04.537Z,7.74
2023-03-31T02:57:23.135Z,7.68
2023-03-31T03:03:40.799Z,7.60
2023-03-31T03:10:32.617Z,7.58
2023-03-31T03:16:48.505Z,7.57
2023-03-31T03:23:29.536Z,7.60
2023-03-31T03:30:32.519Z,7.59
2023-03-31T03:37:38.583Z,7.56
2023-03-31T03:44:31.339Z,7.50
2023-03-31T03:51:27.456Z,7.45
2023-03-31T03:58:29.317Z,7.37
2023-03-31T04:05:22.936Z,7.25
2023-03-31T04:12:25.238Z,7.10
2023-03-31T04:18:28.155Z,6.98
2023-03-31T04:24:14.911Z,6.88
2023-03-31T04:29:47.055Z,6.79
2023-03-31T04:36:01.691Z,6.69
2023-03-31T04:42:29.623Z,6.65
2023-03-31T04:48:44.875Z,6.60
2023-03-31T04:55:42.132Z,6.56
2023-03-31T05:02:00.862Z,6.56
2023-03-31T05:08:26.717Z,6.82
2023-03-31T05:14:20.948Z,7.26
2023-03-31T05:20:46.586Z,7.74
2023-03-31T05:27:02.667Z,8.15
2023-03-31T05:33:40.771Z,8.57
2023-03-31T05:40:06.541Z,9.02
2023-03-31T05:45:54.887Z,9.78
2023-03-31T05:52:51.109Z,10.09
2023-03-31T05:58:30.556Z,10.47
2023-03-31T06:03:41.386Z,11.00
2023-03-31T06:09:31.696Z,11.45
2023-03-31T06:15:47.901Z,11.80
2023-03-31T06:21:41.890Z,11.54
2023-03-31T06:27:46.512Z,11.39
2023-03-31T06:33:58.422Z,12.56
2023-03-31T06:39:50.291Z,13.23
2023-03-31T06:45:14.819Z,14.01
2023-03-31T06:51:19.850Z,14.55
2023-03-31T06:57:36.516Z,14.85
2023-03-31T07:03:32.748Z,14.88
2023-03-31T07:09:23.877Z,14.68
2023-03-31T07:14:45.865Z,15.14
2023-03-31T07:20:44.601Z,15.35
2023-03-31T07:27:14.340Z,15.60
2023-03-31T07:33:40.597Z,15.21
2023-03-31T07:40:10.546Z,14.14
2023-03-31T07:45:46.065Z,13.56
2023-03-31T07:52:08.824Z,13.21
2023-03-31T07:59:04.041Z,12.86
2023-03-31T08:05:45.880Z,12.59
2023-03-31T08:11:23.675Z,12.51
2023-03-31T08:17:48.291Z,13.03
2023-03-31T08:24:26.824Z,14.49
2023-03-31T08:31:29.451Z,15.51
2023-03-31T08:37:53.106Z,16.06
2023-03-31T08:44:02.127Z,15.99
2023-03-31T08:50:51.767Z,16.00
2023-03-31T08:57:52.624Z,16.17
2023-03-31T09:03:38.574Z,16.46
2023-03-31T09:10:06.211Z,16.09
2023-03-31T09:16:57.101Z,16.12
2023-03-31T09:23:41.604Z,15.56
2023-03-31T09:30:39.941Z,15.13
2023-03-31T09:36:58.937Z,15.04
2023-03-31T09:43:44.927Z,14.66
2023-03-31T09:50:28.459Z,14.30
2023-03-31T09:56:52.876Z,14.33
2023-03-31T10:03:03.287Z,14.52
2023-03-31T10:09:26.646Z,15.15
2023-03-31T10:16:10.159Z,15.25
2023-03-31T10:22:59.324Z,14.89
2023-03-31T10:29:08.718Z,14.37
2023-03-31T10:35:46.213Z,14.00
2023-03-31T10:41:42.122Z,13.91
2023-03-31T10:47:52.502Z,13.84
2023-03-31T10:54:03.978Z,13.77
2023-03-31T11:00:24.560Z,13.65
2023-03-31T11:06:41.654Z,13.60
2023-03-31T11:13:25.723Z,13.62
2023-03-31T11:19:22.922Z,13.67
2023-03-31T11:26:31.235Z,13.73
2023-03-31T11:32:31.344Z,13.93
2023-03-31T11:39:15.914Z,14.24
2023-03-31T11:46:11.551Z,14.44
2023-03-31T11:53:16.927Z,14.38
2023-03-31T11:59:28.077Z,14.25
2023-03-31T12:06:30.176Z,14.48
2023-03-31T12:13:23.982Z,14.88
2023-03-31T12:20:14.219Z,15.53
2023-03-31T12:27:14.508Z,16.80
2023-03-31T12:32:50.699Z,17.61
2023-03-31T12:39:27.315Z,17.35
2023-03-31T12:44:59.612Z,16.49
2023-03-31T12:51:21.176Z,16.24
2023-03-31T12:57:34.035Z,15.72
2023-03-31T13:03:46.604Z,15.13
2023-03-31T13:09:55.540Z,14.83
2023-03-31T13:16:27.799Z,14.38
2023-03-31T13:23:05.385Z,13.92
2023-03-31T13:30:17.957Z,13.17
2023-03-31T13:37:06.429Z,12.64
2023-03-31T13:44:13.463Z,12.18
2023-03-31T13:50:38.797Z,11.77
2023-03-31T13:56:34.849Z,11.58
2023-03-31T14:02:27.633Z,11.45
2023-03-31T14:07:40.465Z,11.23
2023-03-31T14:12:42.930Z,11.00
2023-03-31T14:17:47.366Z,10.84
2023-03-31T14:23:12.407Z,10.73
2023-03-31T14:29:00.060Z,10.69
2023-03-31T14:35:05.207Z,10.67
2023-03-31T14:41:20.391Z,10.65
2023-03-31T14:46:23.594Z,10.68
2023-03-31T14:52:28.866Z,10.68
2023-03-31T14:58:34.555Z,10.68
2023-03-31T15:04:41.908Z,10.68
2023-03-31T15:10:40.135Z,10.77
2023-03-31T15:17:04.211Z,10.91
2023-03-31T15:23:11.892Z,11.71
2023-03-31T15:28:42.843Z,12.20
2023-03-31T15:34:37.151Z,12.20
2023-03-31T15:47:38.099Z,11.83
2023-03-31T15:53:14.242Z,11.65
2023-03-31T15:58:59.484Z,11.53
2023-03-31T16:04:06.473Z,11.48
2023-03-31T16:09:25.180Z,11.52
2023-03-31T16:14:50.751Z,11.54
2023-03-31T16:21:15.770Z,11.57
2023-03-31T16:27:50.475Z,11.60
2023-03-31T16:34:46.441Z,11.59
2023-03-31T16:40:21.801Z,11.61
2023-03-31T16:45:36.019Z,11.63
2023-03-31T16:51:29.801Z,11.62
2023-03-31T16:57:48.186Z,11.63
2023-03-31T17:03:43.412Z,11.60
2023-03-31T17:10:03.323Z,11.61
2023-03-31T17:15:52.094Z,11.62
2023-03-31T17:22:16.825Z,11.48
2023-03-31T17:27:41.674Z,11.13
2023-03-31T17:33:21.950Z,10.81
2023-03-31T17:39:38.988Z,10.52
2023-03-31T17:45:34.161Z,10.31
2023-03-31T17:50:49.075Z,10.28
2023-03-31T17:56:28.896Z,10.32
2023-03-31T18:01:37.925Z,10.28
2023-03-31T18:07:03.550Z,10.21
2023-03-31T18:12:59.330Z,10.13
2023-03-31T18:18:43.550Z,10.10
2023-03-31T18:23:54.583Z,9.98
2023-03-31T18:29:23.818Z,9.80
2023-03-31T18:35:22.078Z,9.63
2023-03-31T18:40:50.295Z,9.34
2023-03-31T18:46:45.314Z,9.23
2023-03-31T18:51:53.627Z,9.20
2023-03-31T18:57:34.285Z,9.20
2023-03-31T19:03:29.765Z,9.24
2023-03-31T19:08:56.595Z,9.24
2023-03-31T19:14:37.042Z,9.28
2023-03-31T19:19:48.268Z,9.29
2023-03-31T19:25:04.987Z,9.22
2023-03-31T19:30:44.401Z,9.16
2023-03-31T19:36:46.602Z,9.20
2023-03-31T19:43:08.141Z,9.36
2023-03-31T19:48:56.666Z,9.48
2023-03-31T19:53:58.694Z,9.55
2023-03-31T19:59:22.996Z,9.61
2023-03-31T20:04:45.446Z,9.71
2023-03-31T20:10:39.482Z,9.87
2023-03-31T20:15:41.371Z,10.03
2023-03-31T20:21:12.754Z,10.06
2023-03-31T20:26:35.422Z,10.06
2023-03-31T20:32:53.014Z,10.01
2023-03-31T20:39:13.619Z,9.94
2023-03-31T20:44:36.720Z,9.84
2023-03-31T20:49:41.657Z,9.74
2023-03-31T20:54:46.125Z,9.70
2023-03-31T21:00:14.308Z,9.67
2023-03-31T21:06:32.196Z,9.63
2023-03-31T21:12:57.015Z,9.60
2023-03-31T21:19:21.652Z,9.56
2023-03-31T21:25:43.249Z,9.48
2023-03-31T21:32:04.780Z,9.42
2023-03-31T21:38:32.071Z,9.33
2023-03-31T21:43:55.908Z,9.22
2023-03-31T21:55:41.076Z,8.99
2023-03-31T22:02:26.406Z,8.88
2023-03-31T22:09:09.138Z,8.75
2023-03-31T22:15:33.029Z,8.66
2023-03-31T22:21:43.147Z,8.57
2023-03-31T22:28:07.321Z,8.53
2023-03-31T22:33:49.807Z,8.49
2023-03-31T22:40:14.947Z,8.46
2023-03-31T22:46:31.422Z,8.40
2023-03-31T22:53:05.213Z,8.38
2023-03-31T22:58:37.854Z,8.33
2023-03-31T23:04:25.327Z,8.31
2023-03-31T23:11:06.337Z,8.31
2023-03-31T23:17:14.549Z,8.28
2023-03-31T23:24:00.472Z,8.28
2023-03-31T23:30:10.026Z,8.24
2023-03-31T23:35:54.934Z,8.23
2023-03-31T23:42:19.124Z,8.15
2023-03-31T23:48:37.092Z,8.10
2023-03-31T23:54:36.323Z,8.04
